createdAt,value
2023-05-17T00:01:47.715Z,2.67
2023-05-17T00:04:16.616Z,1.63
2023-05-17T00:06:45.132Z,4.23
2023-05-17T00:09:13.779Z,4.97
2023-05-17T00:11:43.633Z,5.40
2023-05-17T00:14:12.130Z,3.57
2023-05-17T00:16:40.602Z,5.03
2023-05-17T00:19:09.723Z,2.63
2023-05-17T00:21:38.337Z,2.93
2023-05-17T00:24:07.223Z,2.90
2023-05-17T00:26:35.674Z,3.13
2023-05-17T00:29:05.523Z,2.80
2023-05-17T00:31:34.060Z,2.10
2023-05-17T00:34:02.459Z,2.53
2023-05-17T00:36:30.935Z,1.63
2023-05-17T00:38:59.412Z,2.57
2023-05-17T00:41:27.862Z,2.20
2023-05-17T00:43:56.378Z,1.50
2023-05-17T00:46:26.233Z,2.23
2023-05-17T00:48:54.812Z,1.40
2023-05-17T00:51:23.358Z,1.70
2023-05-17T00:53:51.948Z,5.60
2023-05-17T00:56:20.871Z,3.30
2023-05-17T00:58:49.550Z,3.67
2023-05-17T01:01:18.062Z,6.07
2023-05-17T01:03:48.048Z,6.13
2023-05-17T01:06:16.695Z,6.97
2023-05-17T01:08:45.446Z,4.93
2023-05-17T01:11:18.416Z,7.33
2023-05-17T01:13:51.257Z,5.80
2023-05-17T01:16:21.008Z,6.57
2023-05-17T01:18:58.678Z,6.87
2023-05-17T01:21:37.360Z,3.03
2023-05-17T01:24:14.867Z,3.33
2023-05-17T01:26:45.413Z,3.93
2023-05-17T01:29:14.791Z,4.03
2023-05-17T01:31:43.881Z,4.10
2023-05-17T01:34:13.098Z,3.63
2023-05-17T01:36:43.307Z,5.57
2023-05-17T01:39:11.854Z,3.20
2023-05-17T01:41:42.322Z,5.50
2023-05-17T01:44:19.548Z,2.63
2023-05-17T01:46:49.944Z,6.57
2023-05-17T01:49:20.130Z,4.33
2023-05-17T01:51:50.122Z,3.27
2023-05-17T01:54:22.625Z,3.37
2023-05-17T01:56:57.302Z,1.50
2023-05-17T01:59:27.297Z,3.20
2023-05-17T02:01:57.647Z,1.83
2023-05-17T02:04:26.151Z,2.57
2023-05-17T02:06:54.635Z,1.90
2023-05-17T02:09:23.082Z,2.87
2023-05-17T02:11:51.539Z,3.27
2023-05-17T02:14:19.938Z,1.83
2023-05-17T02:16:50.140Z,1.53
2023-05-17T02:19:18.683Z,2.53
2023-05-17T02:21:47.210Z,4.90
2023-05-17T02:24:15.648Z,3.57
2023-05-17T02:26:44.119Z,2.70
2023-05-17T02:29:12.580Z,1.53
2023-05-17T02:31:41.072Z,2.47
2023-05-17T02:34:11.198Z,3.63
2023-05-17T02:36:41.068Z,3.03
2023-05-17T02:39:09.914Z,4.20
2023-05-17T02:41:38.429Z,2.30
2023-05-17T02:44:06.895Z,2.87
2023-05-17T02:46:38.276Z,2.37
2023-05-17T02:49:06.994Z,1.27
2023-05-17T02:51:36.833Z,3.37
2023-05-17T02:54:05.297Z,1.57
2023-05-17T02:56:34.093Z,3.23
2023-05-17T02:59:02.702Z,2.70
2023-05-17T03:01:31.151Z,1.50
2023-05-17T03:03:59.771Z,2.63
2023-05-17T03:06:28.265Z,2.30
2023-05-17T03:08:58.045Z,7.07
2023-05-17T03:11:26.776Z,2.63
2023-05-17T03:13:55.172Z,2.47
2023-05-17T03:16:23.674Z,1.40
2023-05-17T03:18:52.191Z,1.60
2023-05-17T03:21:20.721Z,5.33
2023-05-17T03:23:49.156Z,2.23
2023-05-17T03:26:19.829Z,1.67
2023-05-17T03:28:48.296Z,2.97
2023-05-17T03:31:17.520Z,3.00
2023-05-17T03:33:46.633Z,2.33
2023-05-17T03:36:15.150Z,3.33
2023-05-17T03:38:43.679Z,2.37
2023-05-17T03:41:12.417Z,2.40
2023-05-17T03:43:42.261Z,2.53
2023-05-17T03:46:11.430Z,3.90
2023-05-17T03:48:39.941Z,2.47
2023-05-17T03:51:08.389Z,3.43
2023-05-17T03:53:41.261Z,1.97
2023-05-17T03:56:09.962Z,1.97
2023-05-17T03:58:38.446Z,2.00
2023-05-17T04:01:08.833Z,2.93
2023-05-17T04:03:37.675Z,1.70
2023-05-17T04:06:07.414Z,3.53
2023-05-17T04:08:36.142Z,3.00
2023-05-17T04:11:10.384Z,2.60
2023-05-17T04:13:39.062Z,2.10
2023-05-17T04:16:10.147Z,2.07
2023-05-17T04:18:39.405Z,1.97
2023-05-17T04:21:08.126Z,2.57
2023-05-17T04:23:36.976Z,2.43
2023-05-17T04:26:06.195Z,3.27
2023-05-17T04:28:35.384Z,3.87
2023-05-17T04:31:03.881Z,2.57
2023-05-17T04:33:33.712Z,3.17
2023-05-17T04:36:02.631Z,2.80
2023-05-17T04:38:31.272Z,3.77
2023-05-17T04:41:04.630Z,2.40
2023-05-17T04:43:33.174Z,2.83
2023-05-17T04:46:02.127Z,2.60
2023-05-17T04:48:32.988Z,5.30
2023-05-17T04:51:04.532Z,3.23
2023-05-17T04:53:33.663Z,3.43
2023-05-17T04:56:02.283Z,3.03
2023-05-17T04:58:31.876Z,2.40
2023-05-17T05:01:00.396Z,2.20
2023-05-17T05:03:28.892Z,2.80
2023-05-17T05:05:57.374Z,3.27
2023-05-17T05:08:27.238Z,2.67
2023-05-17T05:10:55.692Z,2.10
2023-05-17T05:13:24.258Z,2.47
2023-05-17T05:15:52.754Z,3.37
2023-05-17T05:18:21.346Z,2.47
2023-05-17T05:20:50.270Z,3.10
2023-05-17T05:23:19.244Z,2.20
2023-05-17T05:25:49.100Z,3.63
2023-05-17T05:28:17.577Z,1.80
2023-05-17T05:30:46.137Z,1.90
2023-05-17T05:33:14.734Z,1.90
2023-05-17T05:35:43.512Z,2.57
2023-05-17T05:38:12.058Z,3.20
2023-05-17T05:40:40.492Z,1.60
2023-05-17T05:43:10.294Z,1.90
2023-05-17T05:45:41.241Z,1.57
2023-05-17T05:48:09.966Z,1.70
2023-05-17T05:50:38.517Z,2.33
2023-05-17T05:53:18.090Z,1.47
2023-05-17T05:55:49.513Z,1.90
2023-05-17T05:58:19.415Z,1.50
2023-05-17T06:00:47.904Z,1.60
2023-05-17T06:03:16.455Z,1.60
2023-05-17T06:05:45.124Z,4.20
2023-05-17T06:08:13.760Z,2.17
2023-05-17T06:10:42.208Z,5.70
2023-05-17T06:13:11.234Z,1.50
2023-05-17T06:15:42.193Z,1.70
2023-05-17T06:18:10.676Z,1.40
2023-05-17T06:20:39.218Z,3.23
2023-05-17T06:23:07.683Z,3.33
2023-05-17T06:25:36.140Z,8.33
2023-05-17T06:28:05.414Z,13.23
2023-05-17T06:30:33.907Z,9.47
2023-05-17T06:33:03.947Z,8.00
2023-05-17T06:35:43.804Z,8.10
2023-05-17T06:38:21.313Z,6.53
2023-05-17T06:40:53.309Z,5.20
2023-05-17T06:43:21.871Z,3.67
2023-05-17T06:45:50.361Z,1.93
2023-05-17T06:48:20.305Z,1.23
2023-05-17T06:50:48.824Z,3.10
2023-05-17T06:53:17.363Z,2.97
2023-05-17T06:55:46.062Z,1.10
2023-05-17T06:58:14.621Z,0.97
2023-05-17T07:00:43.167Z,1.13
2023-05-17T07:03:11.745Z,1.70
2023-05-17T07:05:43.827Z,1.20
2023-05-17T07:08:12.275Z,1.98
2023-05-17T07:10:40.780Z,1.20
2023-05-17T07:13:09.245Z,2.97
2023-05-17T07:15:37.674Z,0.98
2023-05-17T07:18:06.391Z,2.50
2023-05-17T07:20:34.933Z,1.73
2023-05-17T07:23:04.751Z,2.40
2023-05-17T07:25:33.438Z,1.50
2023-05-17T07:28:01.855Z,3.03
2023-05-17T07:30:30.388Z,3.03
2023-05-17T07:32:58.974Z,1.27
2023-05-17T07:35:27.727Z,1.13
2023-05-17T07:37:57.514Z,2.92
2023-05-17T07:40:27.412Z,1.27
2023-05-17T07:42:55.840Z,1.23
2023-05-17T07:45:24.469Z,1.67
2023-05-17T07:47:52.997Z,2.13
2023-05-17T07:50:22.186Z,2.25
2023-05-17T07:52:50.615Z,3.47
2023-05-17T07:55:19.914Z,1.38
2023-05-17T07:57:49.846Z,3.55
2023-05-17T08:00:19.350Z,3.55
2023-05-17T08:02:47.960Z,1.98
2023-05-17T08:05:16.484Z,4.47
2023-05-17T08:07:44.968Z,2.22
2023-05-17T08:10:13.524Z,3.88
2023-05-17T08:12:42.057Z,2.78
2023-05-17T08:15:12.503Z,1.50
2023-05-17T08:17:40.998Z,5.45
2023-05-17T08:20:10.274Z,3.10
2023-05-17T08:22:38.793Z,3.13
2023-05-17T08:25:07.742Z,2.83
2023-05-17T08:27:36.241Z,2.35
2023-05-17T08:30:07.269Z,1.50
2023-05-17T08:32:41.885Z,4.60
2023-05-17T08:35:10.746Z,3.38
2023-05-17T08:37:39.227Z,2.88
2023-05-17T08:40:08.498Z,2.58
2023-05-17T08:42:37.078Z,7.40
2023-05-17T08:45:06.819Z,3.50
2023-05-17T08:47:37.949Z,3.08
2023-05-17T08:50:08.376Z,3.35
2023-05-17T08:52:38.076Z,2.88
2023-05-17T08:55:08.281Z,5.32
2023-05-17T08:57:37.836Z,3.90
2023-05-17T09:00:12.544Z,2.90
2023-05-17T09:02:42.253Z,3.92
2023-05-17T09:05:14.198Z,3.92
2023-05-17T09:07:43.490Z,6.55
2023-05-17T09:10:13.644Z,4.68
2023-05-17T09:12:42.457Z,7.50
2023-05-17T09:15:15.489Z,6.75
2023-05-17T09:17:44.406Z,9.20
2023-05-17T09:20:14.652Z,5.35
2023-05-17T09:22:44.258Z,5.18
2023-05-17T09:25:13.213Z,4.55
2023-05-17T09:27:41.663Z,7.47
2023-05-17T09:30:12.754Z,5.75
2023-05-17T09:32:46.196Z,7.82
2023-05-17T09:35:17.496Z,6.72
2023-05-17T09:37:47.207Z,8.45
2023-05-17T09:40:24.037Z,8.55
2023-05-17T09:42:52.581Z,6.43
2023-05-17T09:45:24.326Z,9.35
2023-05-17T09:47:53.648Z,9.70
2023-05-17T09:50:26.143Z,8.70
2023-05-17T09:52:54.883Z,11.60
2023-05-17T09:55:28.439Z,19.73
2023-05-17T09:58:04.319Z,20.80
2023-05-17T10:00:33.756Z,20.60
2023-05-17T10:03:03.053Z,24.90
2023-05-17T10:05:33.809Z,24.83
2023-05-17T10:08:02.476Z,24.13
2023-05-17T10:10:32.589Z,24.45
2023-05-17T10:13:02.149Z,30.98
2023-05-17T10:15:30.826Z,29.63
2023-05-17T10:17:59.755Z,31.73
2023-05-17T10:20:28.763Z,32.40
2023-05-17T10:22:59.079Z,39.67
2023-05-17T10:25:27.748Z,40.08
2023-05-17T10:27:56.774Z,37.60
2023-05-17T10:30:25.665Z,41.55
2023-05-17T10:32:54.801Z,35.22
2023-05-17T10:35:23.629Z,36.10
2023-05-17T10:37:52.211Z,37.95
2023-05-17T10:40:23.300Z,45.40
2023-05-17T10:42:53.282Z,46.75
2023-05-17T10:45:22.721Z,52.47
2023-05-17T10:47:52.840Z,58.55
2023-05-17T10:50:24.496Z,54.92
2023-05-17T10:52:53.553Z,55.58
2023-05-17T10:55:25.061Z,51.08
2023-05-17T10:58:11.439Z,47.15
2023-05-17T11:00:43.437Z,49.90
2023-05-17T11:03:30.242Z,48.78
2023-05-17T11:06:22.638Z,48.30
2023-05-17T11:09:08.083Z,45.25
2023-05-17T11:11:38.147Z,44.83
2023-05-17T11:14:08.673Z,44.55
2023-05-17T11:16:37.835Z,42.47
2023-05-17T11:19:09.948Z,44.20
2023-05-17T11:21:46.919Z,44.78
2023-05-17T11:24:18.958Z,42.20
2023-05-17T11:26:52.222Z,48.33
2023-05-17T11:29:21.992Z,46.50
2023-05-17T11:31:55.096Z,51.00
2023-05-17T11:34:25.608Z,52.65
2023-05-17T11:36:55.086Z,48.05
2023-05-17T11:39:24.233Z,51.20
2023-05-17T11:41:54.874Z,48.85
2023-05-17T11:44:27.015Z,47.55
2023-05-17T11:47:02.574Z,50.50
2023-05-17T11:49:35.785Z,50.75
2023-05-17T11:52:06.258Z,52.60
2023-05-17T11:54:35.153Z,48.70
2023-05-17T11:57:08.205Z,44.25
2023-05-17T11:59:39.930Z,48.03
2023-05-17T12:02:08.655Z,45.70
2023-05-17T12:04:38.548Z,48.13
2023-05-17T12:07:07.560Z,46.67
2023-05-17T12:09:36.124Z,50.85
2023-05-17T12:12:06.632Z,49.03
2023-05-17T12:14:35.093Z,53.67
2023-05-17T12:17:05.176Z,51.95
2023-05-17T12:19:33.816Z,52.75
2023-05-17T12:22:09.431Z,53.30
2023-05-17T12:24:41.271Z,51.63
2023-05-17T12:27:11.702Z,53.42
2023-05-17T12:29:40.682Z,49.00
2023-05-17T12:32:09.960Z,49.80
2023-05-17T12:34:39.065Z,51.85
2023-05-17T12:37:10.488Z,55.35
2023-05-17T12:39:39.509Z,56.15
2023-05-17T12:42:08.636Z,56.78
2023-05-17T12:44:38.491Z,58.67
2023-05-17T12:47:07.103Z,50.63
2023-05-17T12:49:40.117Z,53.55
2023-05-17T12:52:09.091Z,49.63
2023-05-17T12:54:37.561Z,47.70
2023-05-17T12:57:13.833Z,52.40
2023-05-17T12:59:51.006Z,54.30
2023-05-17T13:02:21.116Z,50.85
2023-05-17T13:04:50.000Z,42.90
2023-05-17T13:07:23.846Z,42.47
2023-05-17T13:09:52.399Z,48.25
2023-05-17T13:12:22.231Z,52.58
2023-05-17T13:14:53.345Z,52.28
2023-05-17T13:17:26.117Z,55.67
2023-05-17T13:19:54.982Z,54.67
2023-05-17T13:22:25.197Z,54.15
2023-05-17T13:24:53.860Z,53.13
2023-05-17T13:27:22.553Z,49.80
2023-05-17T13:29:52.436Z,55.40
2023-05-17T13:32:20.904Z,47.03
2023-05-17T13:34:49.364Z,47.88
2023-05-17T13:37:17.817Z,50.97
2023-05-17T13:39:46.325Z,44.63
2023-05-17T13:42:14.803Z,34.13
2023-05-17T13:44:43.256Z,41.97
2023-05-17T13:47:13.129Z,45.00
2023-05-17T13:49:42.098Z,49.92
2023-05-17T13:52:12.748Z,57.75
2023-05-17T13:54:41.425Z,55.45
2023-05-17T13:57:09.886Z,53.08
2023-05-17T13:59:39.266Z,43.40
2023-05-17T14:02:07.805Z,39.33
2023-05-17T14:04:37.741Z,35.05
2023-05-17T14:07:06.399Z,42.85
2023-05-17T14:09:36.774Z,39.80
2023-05-17T14:12:05.615Z,46.55
2023-05-17T14:14:34.033Z,52.78
2023-05-17T14:17:02.623Z,59.10
2023-05-17T14:19:31.537Z,56.78
2023-05-17T14:22:01.659Z,54.83
2023-05-17T14:24:30.140Z,53.40
2023-05-17T14:26:58.769Z,44.20
2023-05-17T14:29:27.268Z,41.65
2023-05-17T14:31:55.743Z,46.80
2023-05-17T14:34:24.342Z,56.47
2023-05-17T14:36:52.801Z,56.92
2023-05-17T14:39:22.641Z,54.70
2023-05-17T14:41:51.112Z,48.28
2023-05-17T14:44:19.635Z,49.45
2023-05-17T14:46:48.048Z,38.75
2023-05-17T14:49:16.798Z,34.70
2023-05-17T14:51:45.256Z,40.03
2023-05-17T14:54:13.964Z,34.45
2023-05-17T14:56:44.507Z,41.30
2023-05-17T14:59:13.217Z,42.38
2023-05-17T15:01:42.314Z,42.15
2023-05-17T15:04:11.056Z,43.22
2023-05-17T15:06:39.554Z,41.30
2023-05-17T15:09:12.432Z,37.33
2023-05-17T15:11:42.028Z,33.83
2023-05-17T15:14:11.909Z,30.92
2023-05-17T15:16:40.605Z,31.45
2023-05-17T15:19:09.830Z,29.63
2023-05-17T15:21:38.332Z,24.45
2023-05-17T15:24:07.456Z,20.60
2023-05-17T15:26:35.970Z,24.10
2023-05-17T15:29:04.427Z,33.80
2023-05-17T15:31:34.251Z,30.10
2023-05-17T15:34:03.187Z,32.53
2023-05-17T15:36:31.690Z,30.33
2023-05-17T15:39:00.162Z,24.85
2023-05-17T15:41:30.213Z,18.77
2023-05-17T15:43:58.895Z,21.13
2023-05-17T15:46:27.463Z,17.85
2023-05-17T15:48:58.012Z,19.73
2023-05-17T15:51:26.572Z,19.15
2023-05-17T15:53:55.404Z,20.50
2023-05-17T15:56:23.912Z,10.95
2023-05-17T15:58:53.244Z,11.73
2023-05-17T16:01:21.787Z,10.57
2023-05-17T16:03:50.580Z,10.88
2023-05-17T16:06:21.959Z,14.27
2023-05-17T16:08:50.553Z,14.05
2023-05-17T16:11:19.018Z,12.68
2023-05-17T16:13:47.504Z,12.40
2023-05-17T16:16:16.258Z,7.65
2023-05-17T16:18:44.893Z,6.90
2023-05-17T16:21:13.582Z,16.30
2023-05-17T16:23:43.574Z,11.38
2023-05-17T16:26:12.057Z,7.57
2023-05-17T16:28:40.675Z,11.27
2023-05-17T16:31:09.341Z,10.57
2023-05-17T16:33:37.958Z,8.25
2023-05-17T16:36:06.646Z,9.93
2023-05-17T16:38:35.157Z,8.98
2023-05-17T16:41:05.050Z,9.90
2023-05-17T16:43:33.572Z,9.13
2023-05-17T16:46:02.196Z,9.73
2023-05-17T16:48:30.706Z,10.32
2023-05-17T16:50:59.603Z,8.60
2023-05-17T16:53:28.380Z,12.75
2023-05-17T16:55:56.838Z,7.82
2023-05-17T16:58:27.162Z,8.95
2023-05-17T17:00:55.815Z,8.43
2023-05-17T17:03:24.351Z,5.18
2023-05-17T17:05:52.900Z,7.85
2023-05-17T17:08:21.408Z,6.25
2023-05-17T17:10:49.862Z,6.80
2023-05-17T17:13:18.436Z,5.70
2023-05-17T17:15:48.853Z,9.13
2023-05-17T17:18:17.720Z,7.68
2023-05-17T17:20:46.384Z,7.50
2023-05-17T17:23:15.010Z,3.65
2023-05-17T17:25:43.482Z,10.68
2023-05-17T17:28:11.907Z,5.25
2023-05-17T17:30:40.380Z,8.73
2023-05-17T17:33:10.241Z,4.65
2023-05-17T17:35:38.797Z,6.75
2023-05-17T17:38:07.611Z,6.40
2023-05-17T17:40:36.078Z,3.40
2023-05-17T17:43:04.536Z,4.55
2023-05-17T17:45:32.995Z,7.72
2023-05-17T17:48:01.520Z,6.22
2023-05-17T17:50:31.759Z,6.25
2023-05-17T17:53:00.895Z,5.60
2023-05-17T17:55:29.450Z,5.15
2023-05-17T17:57:57.948Z,7.72
2023-05-17T18:00:26.588Z,6.82
2023-05-17T18:02:55.036Z,6.10
2023-05-17T18:05:25.409Z,6.68
2023-05-17T18:07:55.730Z,6.85
2023-05-17T18:10:24.140Z,5.15
2023-05-17T18:12:52.574Z,8.73
2023-05-17T18:15:21.033Z,5.45
2023-05-17T18:17:51.546Z,6.65
2023-05-17T18:20:22.220Z,5.30
2023-05-17T18:22:50.707Z,5.93
2023-05-17T18:25:20.559Z,7.68
2023-05-17T18:27:49.046Z,6.05
2023-05-17T18:30:17.498Z,9.30
2023-05-17T18:32:46.233Z,9.68
2023-05-17T18:35:14.845Z,7.75
2023-05-17T18:37:43.516Z,5.53
2023-05-17T18:40:12.549Z,5.50
2023-05-17T18:42:42.562Z,6.22
2023-05-17T18:45:11.525Z,6.85
2023-05-17T18:47:40.043Z,6.65
2023-05-17T18:50:09.103Z,10.43
2023-05-17T18:52:37.553Z,11.98
2023-05-17T18:55:06.192Z,6.47
2023-05-17T18:57:34.687Z,6.32
2023-05-17T19:00:04.822Z,6.20
2023-05-17T19:02:33.345Z,9.57
2023-05-17T19:05:01.916Z,4.60
2023-05-17T19:07:30.357Z,11.23
2023-05-17T19:09:58.787Z,5.07
2023-05-17T19:12:27.372Z,9.18
2023-05-17T19:14:55.915Z,4.82
2023-05-17T19:17:25.983Z,11.80
2023-05-17T19:19:54.495Z,7.25
2023-05-17T19:22:22.923Z,9.75
2023-05-17T19:24:51.632Z,5.53
2023-05-17T19:27:20.700Z,7.20
2023-05-17T19:29:49.504Z,7.68
2023-05-17T19:32:17.930Z,9.38
2023-05-17T19:34:47.813Z,9.30
2023-05-17T19:37:16.283Z,8.00
2023-05-17T19:39:44.772Z,5.68
2023-05-17T19:42:13.212Z,5.88
2023-05-17T19:44:41.649Z,8.38
2023-05-17T19:47:10.116Z,6.47
2023-05-17T19:49:38.605Z,5.25
2023-05-17T19:52:08.878Z,6.35
2023-05-17T19:54:37.304Z,8.30
2023-05-17T19:57:05.984Z,10.00
2023-05-17T19:59:34.672Z,6.72
2023-05-17T20:02:03.137Z,9.77
2023-05-17T20:04:31.620Z,6.18
2023-05-17T20:07:00.038Z,6.45
2023-05-17T20:09:32.179Z,9.90
2023-05-17T20:12:00.782Z,7.07
2023-05-17T20:14:29.352Z,5.95
2023-05-17T20:16:57.804Z,11.93
2023-05-17T20:19:26.415Z,7.50
2023-05-17T20:21:54.940Z,9.70
2023-05-17T20:24:25.666Z,7.38
2023-05-17T20:26:55.584Z,8.65
2023-05-17T20:29:24.098Z,8.70
2023-05-17T20:31:52.756Z,6.55
2023-05-17T20:34:21.234Z,5.13
2023-05-17T20:36:49.641Z,7.27
2023-05-17T20:39:19.211Z,8.10
2023-05-17T20:41:49.665Z,9.80
2023-05-17T20:44:20.159Z,7.60
2023-05-17T20:46:49.099Z,8.43
2023-05-17T20:49:18.209Z,8.63
2023-05-17T20:51:46.898Z,14.80
2023-05-17T20:54:15.483Z,9.23
2023-05-17T20:56:44.018Z,9.37
2023-05-17T20:59:12.561Z,11.03
2023-05-17T21:01:42.515Z,7.53
2023-05-17T21:04:11.296Z,8.23
2023-05-17T21:06:39.790Z,6.90
2023-05-17T21:09:08.398Z,8.07
2023-05-17T21:11:36.882Z,5.60
2023-05-17T21:14:05.368Z,7.83
2023-05-17T21:16:35.435Z,9.67
2023-05-17T21:19:05.704Z,7.60
2023-05-17T21:21:34.190Z,9.87
2023-05-17T21:24:02.972Z,11.27
2023-05-17T21:26:31.528Z,9.67
2023-05-17T21:29:00.450Z,9.27
2023-05-17T21:31:31.705Z,6.20
2023-05-17T21:34:00.258Z,7.90
2023-05-17T21:36:30.108Z,7.63
2023-05-17T21:38:58.589Z,9.60
2023-05-17T21:41:27.066Z,9.57
2023-05-17T21:43:55.722Z,7.83
2023-05-17T21:46:24.199Z,5.07
2023-05-17T21:48:53.187Z,9.63
2023-05-17T21:51:22.378Z,12.33
2023-05-17T21:53:52.196Z,12.27
2023-05-17T21:56:21.714Z,8.10
2023-05-17T21:58:50.586Z,10.17
2023-05-17T22:01:24.274Z,10.20
2023-05-17T22:03:55.046Z,7.17
2023-05-17T22:06:23.681Z,3.73
2023-05-17T22:08:53.554Z,8.60
2023-05-17T22:11:23.748Z,6.50
2023-05-17T22:13:52.204Z,7.20
2023-05-17T22:16:22.491Z,6.40
2023-05-17T22:18:52.459Z,11.60
2023-05-17T22:21:21.409Z,7.27
2023-05-17T22:23:49.877Z,6.60
2023-05-17T22:26:19.874Z,5.77
2023-05-17T22:28:48.336Z,12.17
2023-05-17T22:31:18.571Z,8.83
2023-05-17T22:33:47.430Z,10.77
2023-05-17T22:36:17.250Z,7.87
2023-05-17T22:38:45.697Z,7.43
2023-05-17T22:41:14.440Z,4.90
2023-05-17T22:43:44.275Z,6.10
2023-05-17T22:46:12.733Z,8.00
2023-05-17T22:48:41.173Z,6.73
2023-05-17T22:51:09.739Z,8.27
2023-05-17T22:53:38.213Z,11.27
2023-05-17T22:56:07.588Z,5.13
2023-05-17T22:58:36.196Z,8.90
2023-05-17T23:01:06.140Z,4.07
2023-05-17T23:03:34.678Z,8.83
2023-05-17T23:06:03.416Z,5.67
2023-05-17T23:08:32.288Z,5.47
2023-05-17T23:11:01.806Z,8.23
2023-05-17T23:13:30.340Z,6.67
2023-05-17T23:15:59.233Z,6.67
2023-05-17T23:18:29.046Z,5.20
2023-05-17T23:20:58.992Z,7.00
2023-05-17T23:23:30.064Z,6.90
2023-05-17T23:25:58.786Z,5.87
2023-05-17T23:28:27.312Z,7.20
2023-05-17T23:30:55.853Z,4.93
2023-05-17T23:33:24.562Z,8.47
2023-05-17T23:35:55.584Z,4.80
2023-05-17T23:38:24.038Z,4.23
2023-05-17T23:40:52.474Z,6.33
2023-05-17T23:43:20.907Z,3.50
2023-05-17T23:45:49.404Z,5.57
2023-05-17T23:48:20.724Z,4.40
2023-05-17T23:50:49.201Z,5.53
2023-05-17T23:53:19.799Z,4.50
2023-05-17T23:55:48.259Z,12.70
2023-05-17T23:58:17.611Z,6.50
